Alpena County Regional Airport
KAPN : now visible

Airfield :











YOU CAN JOIN US ON...

 
LOGIN :

Register | Disclaimer

   EN    FR    IT 

 









Legend :    VFR   Marginal VFR   IFR   Intensive IFR   Very Intensive IFR
Visi :
Ceiling :
>= 8 km
>= 3000ft
5 to 8 km
1000 to 3000 ft
1500m to 5 km
500 to 1000 ft
800 to 1500m
200 to 500 ft
< 800m
< 200 ft
Symbols :   Thunderstorms  Fog  Heavy snow  Heavy precipitations  Wind > 20 kt






- Airport Elevation : 690 ft
- IATA code : APN


KAPN - Alpena County Regional

CURRENT METAR :
  • 280654Z AUTO 00000KT 10SM CLR 02/02 A2993 RMK AO2 SLP141 T00220017

EXPIRED METARs :
  • 280554Z AUTO 00000KT 10SM CLR 03/02 A2995 RMK AO2 SLP148 T00280022 10094 20028 58022
  • 280530Z AUTO 00000KT 3SM BR FEW002 03/03 A2997 RMK AO2 T00330028
  • 280522Z AUTO 00000KT 1 3/4SM BR FEW002 03/02 A2997 RMK AO2 VIS 3/4V5 T00280022
  • 280504Z AUTO 00000KT 5SM BR SCT002 03/02 A2997 RMK AO2 VIS 2 RY 19 T00280022
  • 280447Z AUTO 00000KT 1/2SM FG VV002 03/02 A2998 RMK AO2 T00330022
  • 280434Z AUTO 00000KT 1SM BR VV002 03/03 A2999 RMK AO2 T00280028
  • 280427Z AUTO 00000KT 1 1/2SM BR CLR 03/03 A2999 RMK AO2 T00330028
  • 280415Z AUTO 00000KT 10SM CLR 04/03 A3000 RMK AO2 VIS 2 RY 19 T00390033
  • 280408Z AUTO 00000KT 2 1/2SM BR CLR 04/03 A3000 RMK AO2 VIS 1 3/4 RY 19 T00440033

TAF KAPN
Valid from the 28 at 06:00 until the 29 at 06:00 UTC


280521Z 2806/2906 00000KT 5SM BR FEW022
TEMPO 2807/2811 1SM BR SCT002
FM281230 11005KT P6SM SCT025
FM281600 10011G19KT P6SM SCT250
FM290100 10010KT P6SM BKN250
KZMP FIR / North America



MET'MAP, your aeronautical weather chart ! - Copyright ORBIFLY December 2007 - Disclaimer

ORBIFLY MET'MAP TEAM :

Programming & Development : Alexandra Zaïnal
Concept & original design : Baudouin d'Aumeries
Assistance for programming : Marc-Olivier Méhu
Technical & hardware support : Manuel Goepfert

Contact : metmap@orbifly.com




SOURCES & CREDITS :

   NOAA       Earth
Advisory